Xanthi, Greece
Current Conditions -  °F | °C
As of 11:50 AM on Sunday 23 Nov 2014 (Local Time) from LGKV Reporting Station
Broken Clouds Broken Clouds  
Wind Chill: 50°   Ceiling: 4000
Heat Index: 50°   Visibility: 6mi
Dew Point: 39°   Wind: 7mph
Humidity: 66%   Direction: 90°E
Pressure: 30.33"   Gusts: NA
Location:  41.14°N, 24.88°E
Report Text: LGKV 230950Z 09006KT 9999 FEW020 BKN040 10/04 Q1027
Loading
Personal Weather Stations






























Interactive Weather Map New forecast layout! Learn more

10-Day Weather Forecast

Advertisements
Track Severe Weather on mobile